Airfield :
LOGIN :

Register | Disclaimer

   EN    FR    IT 

 










Legend :    VFR   Marginal VFR   IFR   Intensive IFR   Very Intensive IFR
Visi :
Ceiling :
>= 8 km
>= 3000ft
5 to 8 km
1000 to 3000 ft
1500m to 5 km
500 to 1000 ft
800 to 1500m
200 to 500 ft
< 800m
< 200 ft
Symbols :   Thunderstorms  Fog  Heavy snow  Heavy precipitations  Wind > 20 kt
SIGMETs :     Misc.  Thunderstorms  Icing  Turbulence  Mountain Waves  Volcanic Ashes







- Airport Elevation : 138 ft
- IATA code : BIO


LEBB - Bilbao

CURRENT METAR :
  • 251330Z 26013G24KT 210V300 9999 FEW060 19/02 Q1006 NOSIG

EXPIRED METARs :
  • 251300Z 25015KT 200V290 9999 FEW060 19/03 Q1006 NOSIG
  • 251230Z 26015KT 210V310 9999 SCT060 18/03 Q1006 NOSIG
  • 251200Z 25013G25KT 200V300 9999 SCT060 18/03 Q1006 NOSIG
  • 251130Z 24014G29KT 170V290 9999 SCT060 17/03 Q1006 NOSIG
  • 251100Z 23006G16KT 150V300 9999 SCT060 16/03 Q1006 NOSIG

TAF TAF LEBB
Valid from the 25 at 12:00 until the 26 at 12:00 UTC


251100Z 2512/2612 21009KT 9999 SCT040 TX17/2515Z TN10/2605Z
TEMPO 2512/2521 25015G30KT SCT030TCU
PROB40
TEMPO 2521/2607 SHRA TS SCT020TCU SCT030CB
BECMG 2608/2611 28012KT
TEMPO 2608/2612 27015G25KT
No reported NOTAMs for that airfield.
3 SIGMETs reported for the Madrid FIR (LECM) :
 
Embedded thunderstorms
LECM SIGMET 4 VALID 251210/251400 LEVA
LECM MADRID FIR/UIR EMBD TS OBS AT 1210Z WI N4057 W00336 - N4043 W00258 - N4210 W00018 - N4236 W00009 - N4057 W00336 TOP FL250 MOV NE NC=
Embedded thunderstorms
LECM SIGMET 3 VALID 251142/251400 LEVA
LECM MADRID FIR/UIR EMBD TS OBS AT 1142Z WI N4214 W01024 - N4307 W01035 - N4447 W00736 - N4420 W00705 - N4304 W00820 - N42 W00739 - N4214 W01024 TOP FL300 MOV E NC=
Severe turbulence
LECM SIGMET 2 VALID 251100/251500 LEVA
LECM MADRID FIR SEV TURB FCST WI N4316 W00717 - N4206 W00702 - N4153 W00143 - N4255 W00143 - N4316 W00717 SFC/FL090 STNR NC=



MET'MAP, your aeronautical weather chart ! - Copyright ORBIFLY December 2007 - Disclaimer

ORBIFLY MET'MAP TEAM :

Programming & Development : Alexandra Zaïnal
Concept & Development : Baudouin d'Aumeries
Co-Development & Prog : Marc-Olivier Méhu
Technical & hardware support : Manuel Goepfert

Contact : metmap@orbifly.com




SOURCES & CREDITS :

   NOAA